sensor_id;sensor_type;location;lat;lon;timestamp;P1;durP1;ratioP1;P2;durP2;ratioP2
41643;SDS011;44236;48.098;11.582;2023-02-07T00:01:49;5.75;;;3.90;;
41643;SDS011;44236;48.098;11.582;2023-02-07T00:04:15;4.72;;;3.17;;
41643;SDS011;44236;48.098;11.582;2023-02-07T00:06:40;5.05;;;3.65;;
41643;SDS011;44236;48.098;11.582;2023-02-07T00:09:06;6.28;;;3.67;;
41643;SDS011;44236;48.098;11.582;2023-02-07T00:11:33;6.40;;;3.25;;
41643;SDS011;44236;48.098;11.582;2023-02-07T00:14:00;6.40;;;3.78;;
41643;SDS011;44236;48.098;11.582;2023-02-07T00:16:26;5.30;;;3.60;;
41643;SDS011;44236;48.098;11.582;2023-02-07T00:18:52;5.57;;;3.28;;
41643;SDS011;44236;48.098;11.582;2023-02-07T00:21:22;6.40;;;3.78;;
41643;SDS011;44236;48.098;11.582;2023-02-07T00:23:48;7.13;;;3.75;;
41643;SDS011;44236;48.098;11.582;2023-02-07T00:26:16;5.72;;;3.95;;
41643;SDS011;44236;48.098;11.582;2023-02-07T00:28:42;5.80;;;3.55;;
41643;SDS011;44236;48.098;11.582;2023-02-07T00:31:09;6.10;;;3.67;;
41643;SDS011;44236;48.098;11.582;2023-02-07T00:33:37;5.65;;;3.55;;
41643;SDS011;44236;48.098;11.582;2023-02-07T00:36:05;7.20;;;4.53;;
41643;SDS011;44236;48.098;11.582;2023-02-07T00:38:33;6.57;;;3.95;;
41643;SDS011;44236;48.098;11.582;2023-02-07T00:40:58;5.93;;;3.13;;
41643;SDS011;44236;48.098;11.582;2023-02-07T00:43:28;5.80;;;3.70;;
41643;SDS011;44236;48.098;11.582;2023-02-07T00:45:54;7.03;;;3.92;;
41643;SDS011;44236;48.098;11.582;2023-02-07T00:48:20;5.03;;;3.45;;
41643;SDS011;44236;48.098;11.582;2023-02-07T00:50:46;5.13;;;3.60;;
41643;SDS011;44236;48.098;11.582;2023-02-07T00:53:11;7.18;;;3.90;;
41643;SDS011;44236;48.098;11.582;2023-02-07T00:55:37;6.75;;;4.13;;
41643;SDS011;44236;48.098;11.582;2023-02-07T00:58:03;6.25;;;3.58;;
41643;SDS011;44236;48.098;11.582;2023-02-07T01:00:28;6.25;;;3.63;;
41643;SDS011;44236;48.098;11.582;2023-02-07T01:02:54;6.72;;;4.18;;
41643;SDS011;44236;48.098;11.582;2023-02-07T01:05:19;6.47;;;4.30;;
41643;SDS011;44236;48.098;11.582;2023-02-07T01:07:45;5.88;;;3.70;;
41643;SDS011;44236;48.098;11.582;2023-02-07T01:10:11;5.70;;;3.75;;
41643;SDS011;44236;48.098;11.582;2023-02-07T01:12:36;7.68;;;4.50;;
41643;SDS011;44236;48.098;11.582;2023-02-07T01:15:02;6.93;;;4.07;;
41643;SDS011;44236;48.098;11.582;2023-02-07T01:17:29;5.70;;;4.13;;
41643;SDS011;44236;48.098;11.582;2023-02-07T01:19:55;6.97;;;4.13;;
41643;SDS011;44236;48.098;11.582;2023-02-07T01:22:22;6.07;;;4.28;;
41643;SDS011;44236;48.098;11.582;2023-02-07T01:24:55;5.55;;;3.72;;
41643;SDS011;44236;48.098;11.582;2023-02-07T01:27:21;7.00;;;4.30;;
41643;SDS011;44236;48.098;11.582;2023-02-07T01:29:47;8.07;;;4.57;;
41643;SDS011;44236;48.098;11.582;2023-02-07T01:32:13;7.32;;;3.78;;
41643;SDS011;44236;48.098;11.582;2023-02-07T01:34:38;7.38;;;3.97;;
41643;SDS011;44236;48.098;11.582;2023-02-07T01:37:04;10.98;;;5.40;;
41643;SDS011;44236;48.098;11.582;2023-02-07T01:39:30;6.28;;;3.88;;
41643;SDS011;44236;48.098;11.582;2023-02-07T01:41:56;8.10;;;3.90;;
41643;SDS011;44236;48.098;11.582;2023-02-07T01:46:47;7.28;;;4.18;;
41643;SDS011;44236;48.098;11.582;2023-02-07T01:49:15;6.90;;;4.43;;
41643;SDS011;44236;48.098;11.582;2023-02-07T01:51:45;5.95;;;3.80;;
41643;SDS011;44236;48.098;11.582;2023-02-07T01:54:13;6.03;;;4.63;;
41643;SDS011;44236;48.098;11.582;2023-02-07T01:56:42;7.05;;;3.92;;
41643;SDS011;44236;48.098;11.582;2023-02-07T01:59:10;7.63;;;4.32;;
41643;SDS011;44236;48.098;11.582;2023-02-07T02:01:37;6.60;;;4.00;;
41643;SDS011;44236;48.098;11.582;2023-02-07T02:04:03;7.63;;;4.97;;
41643;SDS011;44236;48.098;11.582;2023-02-07T02:06:29;7.68;;;4.38;;
41643;SDS011;44236;48.098;11.582;2023-02-07T02:08:57;8.68;;;4.45;;
41643;SDS011;44236;48.098;11.582;2023-02-07T02:14:31;7.63;;;4.43;;
41643;SDS011;44236;48.098;11.582;2023-02-07T02:17:24;8.15;;;4.35;;
41643;SDS011;44236;48.098;11.582;2023-02-07T02:31:01;8.45;;;4.72;;
41643;SDS011;44236;48.098;11.582;2023-02-07T02:33:38;6.57;;;4.25;;
41643;SDS011;44236;48.098;11.582;2023-02-07T02:36:32;7.68;;;4.85;;
41643;SDS011;44236;48.098;11.582;2023-02-07T02:39:33;8.57;;;4.60;;
41643;SDS011;44236;48.098;11.582;2023-02-07T02:42:21;7.65;;;4.93;;
41643;SDS011;44236;48.098;11.582;2023-02-07T02:44:49;7.18;;;4.60;;
41643;SDS011;44236;48.098;11.582;2023-02-07T02:47:28;8.40;;;4.80;;
41643;SDS011;44236;48.098;11.582;2023-02-07T02:49:55;7.55;;;4.70;;
41643;SDS011;44236;48.098;11.582;2023-02-07T02:52:21;6.93;;;4.00;;
41643;SDS011;44236;48.098;11.582;2023-02-07T02:54:47;7.22;;;4.70;;
41643;SDS011;44236;48.098;11.582;2023-02-07T03:06:17;6.75;;;4.25;;
41643;SDS011;44236;48.098;11.582;2023-02-07T03:09:32;7.82;;;4.65;;
41643;SDS011;44236;48.098;11.582;2023-02-07T03:12:04;8.45;;;4.75;;
41643;SDS011;44236;48.098;11.582;2023-02-07T03:14:51;8.27;;;5.18;;
41643;SDS011;44236;48.098;11.582;2023-02-07T03:17:25;6.68;;;4.75;;
41643;SDS011;44236;48.098;11.582;2023-02-07T03:20:28;5.55;;;3.78;;
41643;SDS011;44236;48.098;11.582;2023-02-07T03:22:58;7.60;;;4.50;;
41643;SDS011;44236;48.098;11.582;2023-02-07T03:25:26;7.07;;;4.57;;
41643;SDS011;44236;48.098;11.582;2023-02-07T03:27:54;7.05;;;4.30;;
41643;SDS011;44236;48.098;11.582;2023-02-07T03:30:20;8.43;;;5.47;;
41643;SDS011;44236;48.098;11.582;2023-02-07T03:32:50;7.28;;;4.22;;
41643;SDS011;44236;48.098;11.582;2023-02-07T03:35:22;7.45;;;4.47;;
41643;SDS011;44236;48.098;11.582;2023-02-07T03:37:58;7.63;;;4.90;;
41643;SDS011;44236;48.098;11.582;2023-02-07T03:40:26;6.47;;;3.90;;
41643;SDS011;44236;48.098;11.582;2023-02-07T03:45:57;8.65;;;4.78;;
41643;SDS011;44236;48.098;11.582;2023-02-07T03:48:23;7.30;;;4.57;;
41643;SDS011;44236;48.098;11.582;2023-02-07T03:50:49;7.70;;;4.38;;
41643;SDS011;44236;48.098;11.582;2023-02-07T03:53:17;7.00;;;4.22;;
41643;SDS011;44236;48.098;11.582;2023-02-07T03:55:43;7.97;;;4.70;;
41643;SDS011;44236;48.098;11.582;2023-02-07T03:58:09;7.72;;;4.05;;
41643;SDS011;44236;48.098;11.582;2023-02-07T04:00:34;8.63;;;4.45;;
41643;SDS011;44236;48.098;11.582;2023-02-07T04:03:00;7.80;;;3.95;;
41643;SDS011;44236;48.098;11.582;2023-02-07T04:05:27;6.00;;;4.00;;
41643;SDS011;44236;48.098;11.582;2023-02-07T04:07:52;7.25;;;4.45;;
41643;SDS011;44236;48.098;11.582;2023-02-07T04:10:18;7.15;;;3.92;;
41643;SDS011;44236;48.098;11.582;2023-02-07T04:12:44;6.57;;;4.05;;
41643;SDS011;44236;48.098;11.582;2023-02-07T04:15:09;8.82;;;4.28;;
41643;SDS011;44236;48.098;11.582;2023-02-07T04:17:35;7.28;;;4.30;;
41643;SDS011;44236;48.098;11.582;2023-02-07T04:20:01;8.63;;;4.55;;
41643;SDS011;44236;48.098;11.582;2023-02-07T04:22:28;6.63;;;4.13;;
41643;SDS011;44236;48.098;11.582;2023-02-07T04:24:54;6.80;;;3.90;;
41643;SDS011;44236;48.098;11.582;2023-02-07T04:27:19;6.68;;;3.90;;
41643;SDS011;44236;48.098;11.582;2023-02-07T04:29:45;7.35;;;4.43;;
41643;SDS011;44236;48.098;11.582;2023-02-07T04:32:10;6.55;;;4.15;;
41643;SDS011;44236;48.098;11.582;2023-02-07T04:34:36;7.85;;;4.85;;
41643;SDS011;44236;48.098;11.582;2023-02-07T04:37:02;7.18;;;4.15;;
41643;SDS011;44236;48.098;11.582;2023-02-07T04:39:27;7.90;;;4.30;;
41643;SDS011;44236;48.098;11.582;2023-02-07T04:41:53;6.30;;;3.95;;
41643;SDS011;44236;48.098;11.582;2023-02-07T04:44:18;7.97;;;4.25;;
41643;SDS011;44236;48.098;11.582;2023-02-07T04:46:44;7.93;;;4.03;;
41643;SDS011;44236;48.098;11.582;2023-02-07T04:49:10;7.82;;;4.40;;
41643;SDS011;44236;48.098;11.582;2023-02-07T04:51:35;8.95;;;4.30;;
41643;SDS011;44236;48.098;11.582;2023-02-07T04:54:01;6.43;;;4.10;;
41643;SDS011;44236;48.098;11.582;2023-02-07T04:56:27;6.88;;;3.92;;
41643;SDS011;44236;48.098;11.582;2023-02-07T04:58:53;6.22;;;3.47;;
41643;SDS011;44236;48.098;11.582;2023-02-07T05:01:18;7.70;;;4.45;;
41643;SDS011;44236;48.098;11.582;2023-02-07T05:03:44;8.38;;;4.38;;
41643;SDS011;44236;48.098;11.582;2023-02-07T05:06:10;7.57;;;4.22;;
41643;SDS011;44236;48.098;11.582;2023-02-07T05:08:36;6.13;;;3.80;;
41643;SDS011;44236;48.098;11.582;2023-02-07T05:11:01;7.82;;;4.38;;
41643;SDS011;44236;48.098;11.582;2023-02-07T05:13:28;7.07;;;4.35;;
41643;SDS011;44236;48.098;11.582;2023-02-07T05:15:53;7.25;;;3.92;;
41643;SDS011;44236;48.098;11.582;2023-02-07T05:18:19;6.55;;;4.32;;
41643;SDS011;44236;48.098;11.582;2023-02-07T05:20:45;6.35;;;4.25;;
41643;SDS011;44236;48.098;11.582;2023-02-07T05:23:11;7.70;;;4.53;;
41643;SDS011;44236;48.098;11.582;2023-02-07T05:25:37;7.38;;;4.53;;
41643;SDS011;44236;48.098;11.582;2023-02-07T05:28:02;6.78;;;3.80;;
41643;SDS011;44236;48.098;11.582;2023-02-07T05:30:28;7.88;;;4.32;;
41643;SDS011;44236;48.098;11.582;2023-02-07T05:32:54;6.13;;;3.83;;
41643;SDS011;44236;48.098;11.582;2023-02-07T05:35:29;6.35;;;3.72;;
41643;SDS011;44236;48.098;11.582;2023-02-07T05:37:59;6.93;;;4.00;;
41643;SDS011;44236;48.098;11.582;2023-02-07T05:40:25;7.68;;;4.47;;
41643;SDS011;44236;48.098;11.582;2023-02-07T05:42:52;7.93;;;4.50;;
41643;SDS011;44236;48.098;11.582;2023-02-07T05:45:18;5.10;;;3.50;;
41643;SDS011;44236;48.098;11.582;2023-02-07T05:47:44;6.80;;;4.10;;
41643;SDS011;44236;48.098;11.582;2023-02-07T05:50:09;7.63;;;4.22;;
41643;SDS011;44236;48.098;11.582;2023-02-07T05:52:35;5.80;;;3.70;;
41643;SDS011;44236;48.098;11.582;2023-02-07T05:55:01;8.15;;;4.25;;
41643;SDS011;44236;48.098;11.582;2023-02-07T05:57:26;7.20;;;4.30;;
41643;SDS011;44236;48.098;11.582;2023-02-07T05:59:52;7.20;;;4.10;;
41643;SDS011;44236;48.098;11.582;2023-02-07T06:02:17;5.75;;;3.70;;
41643;SDS011;44236;48.098;11.582;2023-02-07T06:04:43;7.35;;;3.95;;
41643;SDS011;44236;48.098;11.582;2023-02-07T06:07:09;7.68;;;4.35;;
41643;SDS011;44236;48.098;11.582;2023-02-07T06:09:34;6.28;;;4.32;;
41643;SDS011;44236;48.098;11.582;2023-02-07T06:12:00;6.95;;;4.43;;
41643;SDS011;44236;48.098;11.582;2023-02-07T06:14:26;7.38;;;4.10;;
41643;SDS011;44236;48.098;11.582;2023-02-07T06:16:51;6.78;;;4.05;;
41643;SDS011;44236;48.098;11.582;2023-02-07T06:19:17;6.82;;;4.00;;
41643;SDS011;44236;48.098;11.582;2023-02-07T06:21:43;7.13;;;4.57;;
41643;SDS011;44236;48.098;11.582;2023-02-07T06:24:08;7.90;;;4.25;;
41643;SDS011;44236;48.098;11.582;2023-02-07T06:26:34;6.50;;;3.65;;
41643;SDS011;44236;48.098;11.582;2023-02-07T06:28:59;7.47;;;3.90;;
41643;SDS011;44236;48.098;11.582;2023-02-07T06:31:25;7.45;;;4.72;;
41643;SDS011;44236;48.098;11.582;2023-02-07T06:33:51;14.32;;;8.00;;
41643;SDS011;44236;48.098;11.582;2023-02-07T06:36:17;11.15;;;6.85;;
41643;SDS011;44236;48.098;11.582;2023-02-07T06:38:42;12.32;;;8.20;;
41643;SDS011;44236;48.098;11.582;2023-02-07T06:41:08;10.13;;;6.57;;
41643;SDS011;44236;48.098;11.582;2023-02-07T06:43:35;8.93;;;4.88;;
41643;SDS011;44236;48.098;11.582;2023-02-07T06:46:02;12.23;;;6.28;;
41643;SDS011;44236;48.098;11.582;2023-02-07T06:48:27;8.77;;;4.85;;
41643;SDS011;44236;48.098;11.582;2023-02-07T06:50:53;7.93;;;4.75;;
41643;SDS011;44236;48.098;11.582;2023-02-07T06:53:19;7.95;;;4.60;;
41643;SDS011;44236;48.098;11.582;2023-02-07T06:55:44;6.53;;;4.18;;
41643;SDS011;44236;48.098;11.582;2023-02-07T06:58:10;11.52;;;4.63;;
41643;SDS011;44236;48.098;11.582;2023-02-07T07:00:35;8.68;;;4.57;;
41643;SDS011;44236;48.098;11.582;2023-02-07T07:03:02;7.90;;;4.45;;
41643;SDS011;44236;48.098;11.582;2023-02-07T07:05:28;11.10;;;5.00;;
41643;SDS011;44236;48.098;11.582;2023-02-07T07:07:54;19.63;;;4.88;;
41643;SDS011;44236;48.098;11.582;2023-02-07T07:10:20;8.48;;;4.72;;
41643;SDS011;44236;48.098;11.582;2023-02-07T07:12:47;6.00;;;3.80;;
41643;SDS011;44236;48.098;11.582;2023-02-07T07:15:13;8.15;;;3.85;;
41643;SDS011;44236;48.098;11.582;2023-02-07T07:17:39;8.02;;;4.55;;
41643;SDS011;44236;48.098;11.582;2023-02-07T07:20:05;7.88;;;4.18;;
41643;SDS011;44236;48.098;11.582;2023-02-07T07:22:31;9.65;;;5.45;;
41643;SDS011;44236;48.098;11.582;2023-02-07T07:24:58;8.88;;;3.95;;
41643;SDS011;44236;48.098;11.582;2023-02-07T07:27:23;10.13;;;4.47;;
41643;SDS011;44236;48.098;11.582;2023-02-07T07:29:49;6.53;;;4.20;;
41643;SDS011;44236;48.098;11.582;2023-02-07T07:34:47;7.13;;;4.20;;
41643;SDS011;44236;48.098;11.582;2023-02-07T07:37:14;8.85;;;4.50;;
41643;SDS011;44236;48.098;11.582;2023-02-07T07:39:40;13.13;;;4.32;;
41643;SDS011;44236;48.098;11.582;2023-02-07T07:42:06;8.85;;;4.38;;
41643;SDS011;44236;48.098;11.582;2023-02-07T07:44:32;6.47;;;3.55;;
41643;SDS011;44236;48.098;11.582;2023-02-07T07:46:57;9.00;;;4.15;;
41643;SDS011;44236;48.098;11.582;2023-02-07T07:49:23;7.32;;;3.63;;
41643;SDS011;44236;48.098;11.582;2023-02-07T07:51:49;6.95;;;3.97;;
41643;SDS011;44236;48.098;11.582;2023-02-07T07:54:15;7.00;;;3.83;;
41643;SDS011;44236;48.098;11.582;2023-02-07T07:56:41;7.97;;;5.03;;
41643;SDS011;44236;48.098;11.582;2023-02-07T07:59:07;14.07;;;4.53;;
41643;SDS011;44236;48.098;11.582;2023-02-07T08:01:33;10.00;;;4.63;;
41643;SDS011;44236;48.098;11.582;2023-02-07T08:03:58;7.10;;;3.92;;
41643;SDS011;44236;48.098;11.582;2023-02-07T08:06:24;8.90;;;4.43;;
41643;SDS011;44236;48.098;11.582;2023-02-07T08:08:49;7.88;;;4.55;;
41643;SDS011;44236;48.098;11.582;2023-02-07T08:11:15;9.80;;;4.07;;
41643;SDS011;44236;48.098;11.582;2023-02-07T08:13:41;8.40;;;4.00;;
41643;SDS011;44236;48.098;11.582;2023-02-07T08:16:06;8.98;;;3.72;;
41643;SDS011;44236;48.098;11.582;2023-02-07T08:18:32;9.13;;;3.95;;
41643;SDS011;44236;48.098;11.582;2023-02-07T08:20:59;6.80;;;3.97;;
41643;SDS011;44236;48.098;11.582;2023-02-07T08:23:25;6.05;;;3.60;;
41643;SDS011;44236;48.098;11.582;2023-02-07T08:25:50;7.13;;;3.30;;
41643;SDS011;44236;48.098;11.582;2023-02-07T08:28:16;6.20;;;3.78;;
41643;SDS011;44236;48.098;11.582;2023-02-07T08:30:42;6.93;;;4.00;;
41643;SDS011;44236;48.098;11.582;2023-02-07T08:33:11;6.07;;;3.35;;
41643;SDS011;44236;48.098;11.582;2023-02-07T08:35:37;7.32;;;3.33;;
41643;SDS011;44236;48.098;11.582;2023-02-07T08:38:03;6.78;;;4.00;;
41643;SDS011;44236;48.098;11.582;2023-02-07T08:40:29;8.85;;;3.38;;
41643;SDS011;44236;48.098;11.582;2023-02-07T08:42:54;7.32;;;3.67;;
41643;SDS011;44236;48.098;11.582;2023-02-07T08:45:23;9.57;;;3.45;;
41643;SDS011;44236;48.098;11.582;2023-02-07T08:47:48;6.25;;;3.13;;
41643;SDS011;44236;48.098;11.582;2023-02-07T08:50:15;6.85;;;3.33;;
41643;SDS011;44236;48.098;11.582;2023-02-07T08:52:41;7.30;;;3.03;;
41643;SDS011;44236;48.098;11.582;2023-02-07T08:55:07;7.43;;;3.33;;
41643;SDS011;44236;48.098;11.582;2023-02-07T08:57:34;7.03;;;3.63;;
41643;SDS011;44236;48.098;11.582;2023-02-07T08:59:59;6.53;;;3.72;;
41643;SDS011;44236;48.098;11.582;2023-02-07T09:02:25;7.18;;;3.13;;
41643;SDS011;44236;48.098;11.582;2023-02-07T09:04:52;6.15;;;3.67;;
41643;SDS011;44236;48.098;11.582;2023-02-07T09:07:18;5.90;;;3.25;;
41643;SDS011;44236;48.098;11.582;2023-02-07T09:09:44;9.38;;;3.15;;
41643;SDS011;44236;48.098;11.582;2023-02-07T09:12:11;6.45;;;3.88;;
41643;SDS011;44236;48.098;11.582;2023-02-07T09:14:37;4.85;;;2.80;;
41643;SDS011;44236;48.098;11.582;2023-02-07T09:17:03;8.30;;;3.28;;
41643;SDS011;44236;48.098;11.582;2023-02-07T09:19:30;5.22;;;3.10;;
41643;SDS011;44236;48.098;11.582;2023-02-07T09:21:56;5.32;;;2.88;;
41643;SDS011;44236;48.098;11.582;2023-02-07T09:24:22;5.72;;;2.88;;
41643;SDS011;44236;48.098;11.582;2023-02-07T09:26:47;5.75;;;3.25;;
41643;SDS011;44236;48.098;11.582;2023-02-07T09:29:13;6.32;;;2.92;;
41643;SDS011;44236;48.098;11.582;2023-02-07T09:31:39;6.57;;;3.63;;
41643;SDS011;44236;48.098;11.582;2023-02-07T09:34:06;7.15;;;3.00;;
41643;SDS011;44236;48.098;11.582;2023-02-07T09:36:31;5.30;;;3.00;;
41643;SDS011;44236;48.098;11.582;2023-02-07T09:38:58;4.50;;;3.00;;
41643;SDS011;44236;48.098;11.582;2023-02-07T09:44:19;7.85;;;3.30;;
41643;SDS011;44236;48.098;11.582;2023-02-07T09:47:06;7.15;;;3.72;;
41643;SDS011;44236;48.098;11.582;2023-02-07T09:50:03;5.18;;;2.67;;
41643;SDS011;44236;48.098;11.582;2023-02-07T09:52:45;8.27;;;3.25;;
41643;SDS011;44236;48.098;11.582;2023-02-07T09:55:19;6.55;;;3.03;;
41643;SDS011;44236;48.098;11.582;2023-02-07T09:58:25;6.95;;;3.08;;
41643;SDS011;44236;48.098;11.582;2023-02-07T10:01:11;5.50;;;3.00;;
41643;SDS011;44236;48.098;11.582;2023-02-07T10:06:46;9.52;;;3.95;;
41643;SDS011;44236;48.098;11.582;2023-02-07T10:09:16;8.02;;;3.42;;
41643;SDS011;44236;48.098;11.582;2023-02-07T10:14:24;8.27;;;3.40;;
41643;SDS011;44236;48.098;11.582;2023-02-07T10:19:56;7.22;;;3.33;;
41643;SDS011;44236;48.098;11.582;2023-02-07T10:30:49;8.30;;;3.35;;
41643;SDS011;44236;48.098;11.582;2023-02-07T10:33:29;8.75;;;3.85;;
41643;SDS011;44236;48.098;11.582;2023-02-07T10:36:00;6.85;;;3.30;;
41643;SDS011;44236;48.098;11.582;2023-02-07T10:38:34;6.40;;;3.47;;
41643;SDS011;44236;48.098;11.582;2023-02-07T10:41:11;6.03;;;3.25;;
41643;SDS011;44236;48.098;11.582;2023-02-07T10:43:43;6.22;;;3.58;;
41643;SDS011;44236;48.098;11.582;2023-02-07T10:46:12;6.43;;;3.33;;
41643;SDS011;44236;48.098;11.582;2023-02-07T10:48:39;6.13;;;3.22;;
41643;SDS011;44236;48.098;11.582;2023-02-07T10:51:28;7.38;;;3.70;;
41643;SDS011;44236;48.098;11.582;2023-02-07T10:54:08;5.25;;;3.45;;
41643;SDS011;44236;48.098;11.582;2023-02-07T10:56:51;9.52;;;3.85;;
41643;SDS011;44236;48.098;11.582;2023-02-07T11:07:27;6.13;;;3.38;;
41643;SDS011;44236;48.098;11.582;2023-02-07T11:10:09;5.32;;;3.17;;
41643;SDS011;44236;48.098;11.582;2023-02-07T11:12:43;9.02;;;3.30;;
41643;SDS011;44236;48.098;11.582;2023-02-07T11:18:38;6.80;;;3.78;;
41643;SDS011;44236;48.098;11.582;2023-02-07T11:24:03;6.68;;;3.45;;
41643;SDS011;44236;48.098;11.582;2023-02-07T11:26:30;6.85;;;2.97;;
41643;SDS011;44236;48.098;11.582;2023-02-07T11:29:11;7.57;;;3.70;;
41643;SDS011;44236;48.098;11.582;2023-02-07T11:31:39;7.57;;;3.25;;
41643;SDS011;44236;48.098;11.582;2023-02-07T11:36:53;7.13;;;3.53;;
41643;SDS011;44236;48.098;11.582;2023-02-07T11:39:19;8.05;;;3.05;;
41643;SDS011;44236;48.098;11.582;2023-02-07T11:41:54;6.82;;;3.40;;
41643;SDS011;44236;48.098;11.582;2023-02-07T11:44:25;5.55;;;2.72;;
41643;SDS011;44236;48.098;11.582;2023-02-07T11:46:55;7.43;;;3.38;;
41643;SDS011;44236;48.098;11.582;2023-02-07T11:49:28;9.13;;;4.20;;
41643;SDS011;44236;48.098;11.582;2023-02-07T11:52:06;5.65;;;3.33;;
41643;SDS011;44236;48.098;11.582;2023-02-07T11:54:33;5.97;;;3.60;;
41643;SDS011;44236;48.098;11.582;2023-02-07T11:57:02;7.65;;;3.08;;
41643;SDS011;44236;48.098;11.582;2023-02-07T11:59:30;9.07;;;3.33;;
41643;SDS011;44236;48.098;11.582;2023-02-07T12:01:58;6.80;;;3.55;;
41643;SDS011;44236;48.098;11.582;2023-02-07T12:04:33;7.55;;;3.30;;
41643;SDS011;44236;48.098;11.582;2023-02-07T12:07:07;8.90;;;3.53;;
41643;SDS011;44236;48.098;11.582;2023-02-07T12:12:18;6.10;;;2.92;;
41643;SDS011;44236;48.098;11.582;2023-02-07T12:17:39;8.07;;;3.50;;
41643;SDS011;44236;48.098;11.582;2023-02-07T12:20:22;5.95;;;3.05;;
41643;SDS011;44236;48.098;11.582;2023-02-07T12:25:44;7.50;;;3.60;;
41643;SDS011;44236;48.098;11.582;2023-02-07T12:28:27;9.60;;;4.13;;
41643;SDS011;44236;48.098;11.582;2023-02-07T12:31:08;6.72;;;3.35;;
41643;SDS011;44236;48.098;11.582;2023-02-07T12:33:45;6.45;;;3.30;;
41643;SDS011;44236;48.098;11.582;2023-02-07T12:36:26;7.75;;;3.33;;
41643;SDS011;44236;48.098;11.582;2023-02-07T12:41:43;6.88;;;3.55;;
41643;SDS011;44236;48.098;11.582;2023-02-07T12:55:07;6.32;;;3.13;;
41643;SDS011;44236;48.098;11.582;2023-02-07T13:03:41;4.60;;;2.80;;
41643;SDS011;44236;48.098;11.582;2023-02-07T13:06:30;9.15;;;3.28;;
41643;SDS011;44236;48.098;11.582;2023-02-07T13:14:38;5.05;;;2.58;;
41643;SDS011;44236;48.098;11.582;2023-02-07T13:19:58;5.82;;;2.88;;
41643;SDS011;44236;48.098;11.582;2023-02-07T13:22:47;5.28;;;2.35;;
41643;SDS011;44236;48.098;11.582;2023-02-07T13:28:02;5.18;;;2.70;;
41643;SDS011;44236;48.098;11.582;2023-02-07T13:30:32;6.03;;;2.83;;
41643;SDS011;44236;48.098;11.582;2023-02-07T13:33:02;7.85;;;3.67;;
41643;SDS011;44236;48.098;11.582;2023-02-07T13:35:42;5.60;;;2.53;;
41643;SDS011;44236;48.098;11.582;2023-02-07T13:41:00;5.53;;;2.95;;
41643;SDS011;44236;48.098;11.582;2023-02-07T13:46:30;5.20;;;3.20;;
41643;SDS011;44236;48.098;11.582;2023-02-07T13:49:15;6.95;;;3.25;;
41643;SDS011;44236;48.098;11.582;2023-02-07T13:57:42;7.00;;;2.80;;
41643;SDS011;44236;48.098;11.582;2023-02-07T14:00:31;4.70;;;2.75;;
41643;SDS011;44236;48.098;11.582;2023-02-07T14:03:20;5.07;;;2.13;;
41643;SDS011;44236;48.098;11.582;2023-02-07T14:05:45;5.43;;;2.47;;
41643;SDS011;44236;48.098;11.582;2023-02-07T14:13:24;5.10;;;2.75;;
41643;SDS011;44236;48.098;11.582;2023-02-07T14:15:53;7.40;;;3.05;;
41643;SDS011;44236;48.098;11.582;2023-02-07T14:24:00;5.57;;;2.75;;
41643;SDS011;44236;48.098;11.582;2023-02-07T14:32:01;5.85;;;2.63;;
41643;SDS011;44236;48.098;11.582;2023-02-07T14:37:40;5.78;;;2.55;;
41643;SDS011;44236;48.098;11.582;2023-02-07T14:40:19;6.93;;;3.03;;
41643;SDS011;44236;48.098;11.582;2023-02-07T14:45:37;8.55;;;3.47;;
41643;SDS011;44236;48.098;11.582;2023-02-07T14:51:00;7.25;;;3.55;;
41643;SDS011;44236;48.098;11.582;2023-02-07T14:53:26;7.50;;;3.05;;
41643;SDS011;44236;48.098;11.582;2023-02-07T14:55:57;5.72;;;2.80;;
41643;SDS011;44236;48.098;11.582;2023-02-07T14:58:31;6.90;;;3.17;;
41643;SDS011;44236;48.098;11.582;2023-02-07T15:01:09;10.20;;;4.00;;
41643;SDS011;44236;48.098;11.582;2023-02-07T15:03:36;4.82;;;2.67;;
41643;SDS011;44236;48.098;11.582;2023-02-07T15:06:02;5.55;;;2.80;;
41643;SDS011;44236;48.098;11.582;2023-02-07T15:08:39;5.15;;;2.63;;
41643;SDS011;44236;48.098;11.582;2023-02-07T15:11:22;4.65;;;2.90;;
41643;SDS011;44236;48.098;11.582;2023-02-07T15:13:51;6.00;;;3.22;;
41643;SDS011;44236;48.098;11.582;2023-02-07T15:16:23;10.05;;;3.28;;
41643;SDS011;44236;48.098;11.582;2023-02-07T15:18:54;5.90;;;3.33;;
41643;SDS011;44236;48.098;11.582;2023-02-07T15:21:29;7.15;;;3.05;;
41643;SDS011;44236;48.098;11.582;2023-02-07T15:26:28;6.68;;;3.13;;
41643;SDS011;44236;48.098;11.582;2023-02-07T15:28:58;5.47;;;3.17;;
41643;SDS011;44236;48.098;11.582;2023-02-07T15:31:29;5.20;;;3.03;;
41643;SDS011;44236;48.098;11.582;2023-02-07T15:39:02;8.48;;;3.33;;
41643;SDS011;44236;48.098;11.582;2023-02-07T15:41:30;11.13;;;3.63;;
41643;SDS011;44236;48.098;11.582;2023-02-07T15:43:57;7.05;;;3.55;;
41643;SDS011;44236;48.098;11.582;2023-02-07T15:46:48;6.53;;;3.22;;
41643;SDS011;44236;48.098;11.582;2023-02-07T15:49:56;9.15;;;3.33;;
41643;SDS011;44236;48.098;11.582;2023-02-07T15:54:48;5.97;;;2.78;;
41643;SDS011;44236;48.098;11.582;2023-02-07T15:59:50;7.25;;;3.17;;
41643;SDS011;44236;48.098;11.582;2023-02-07T16:04:56;7.75;;;3.70;;
41643;SDS011;44236;48.098;11.582;2023-02-07T16:07:22;10.45;;;7.10;;
41643;SDS011;44236;48.098;11.582;2023-02-07T16:09:49;14.13;;;8.20;;
41643;SDS011;44236;48.098;11.582;2023-02-07T16:12:31;13.80;;;6.80;;
41643;SDS011;44236;48.098;11.582;2023-02-07T16:17:53;14.55;;;7.60;;
41643;SDS011;44236;48.098;11.582;2023-02-07T16:20:21;9.40;;;5.55;;
41643;SDS011;44236;48.098;11.582;2023-02-07T16:22:48;10.20;;;5.88;;
41643;SDS011;44236;48.098;11.582;2023-02-07T16:25:22;10.02;;;5.10;;
41643;SDS011;44236;48.098;11.582;2023-02-07T16:28:00;12.30;;;5.10;;
41643;SDS011;44236;48.098;11.582;2023-02-07T16:30:35;8.93;;;4.97;;
41643;SDS011;44236;48.098;11.582;2023-02-07T16:33:05;9.10;;;5.30;;
41643;SDS011;44236;48.098;11.582;2023-02-07T16:35:32;13.15;;;5.13;;
41643;SDS011;44236;48.098;11.582;2023-02-07T16:37:58;8.85;;;4.35;;
41643;SDS011;44236;48.098;11.582;2023-02-07T16:40:24;12.57;;;4.65;;
41643;SDS011;44236;48.098;11.582;2023-02-07T16:42:51;7.90;;;4.22;;
41643;SDS011;44236;48.098;11.582;2023-02-07T16:45:19;10.60;;;4.53;;
41643;SDS011;44236;48.098;11.582;2023-02-07T16:47:47;7.22;;;4.45;;
41643;SDS011;44236;48.098;11.582;2023-02-07T16:50:22;10.43;;;4.95;;
41643;SDS011;44236;48.098;11.582;2023-02-07T16:52:50;7.13;;;4.47;;
41643;SDS011;44236;48.098;11.582;2023-02-07T16:55:17;8.77;;;4.60;;
41643;SDS011;44236;48.098;11.582;2023-02-07T16:57:44;9.68;;;4.80;;
41643;SDS011;44236;48.098;11.582;2023-02-07T17:00:18;9.07;;;6.45;;
41643;SDS011;44236;48.098;11.582;2023-02-07T17:02:46;7.80;;;5.53;;
41643;SDS011;44236;48.098;11.582;2023-02-07T17:05:14;8.65;;;5.40;;
41643;SDS011;44236;48.098;11.582;2023-02-07T17:07:44;8.35;;;4.63;;
41643;SDS011;44236;48.098;11.582;2023-02-07T17:10:15;7.55;;;4.82;;
41643;SDS011;44236;48.098;11.582;2023-02-07T17:12:45;7.63;;;4.07;;
41643;SDS011;44236;48.098;11.582;2023-02-07T17:15:10;9.73;;;4.53;;
41643;SDS011;44236;48.098;11.582;2023-02-07T17:17:36;8.02;;;4.90;;
41643;SDS011;44236;48.098;11.582;2023-02-07T17:20:05;8.07;;;4.57;;
41643;SDS011;44236;48.098;11.582;2023-02-07T17:22:40;8.57;;;4.50;;
41643;SDS011;44236;48.098;11.582;2023-02-07T17:25:06;8.63;;;4.35;;
41643;SDS011;44236;48.098;11.582;2023-02-07T17:27:32;8.00;;;3.97;;
41643;SDS011;44236;48.098;11.582;2023-02-07T17:29:57;7.43;;;4.10;;